createdAt,value
2023-01-13T00:01:27.252Z,15.23
2023-01-13T00:04:31.837Z,13.80
2023-01-13T00:07:35.081Z,13.03
2023-01-13T00:10:39.600Z,13.37
2023-01-13T00:13:43.005Z,12.73
2023-01-13T00:16:46.050Z,12.40
2023-01-13T00:19:49.259Z,12.63
2023-01-13T00:22:53.104Z,12.07
2023-01-13T00:25:58.890Z,11.60
2023-01-13T00:29:02.732Z,11.83
2023-01-13T00:32:06.399Z,11.00
2023-01-13T00:35:10.423Z,10.70
2023-01-13T00:38:13.790Z,10.67
2023-01-13T00:41:20.488Z,9.63
2023-01-13T00:44:22.734Z,9.97
2023-01-13T00:47:25.769Z,9.70
2023-01-13T00:50:30.329Z,9.57
2023-01-13T00:53:36.493Z,9.60
2023-01-13T00:56:41.510Z,8.90
2023-01-13T00:59:44.566Z,8.80
2023-01-13T01:02:48.345Z,8.70
2023-01-13T01:05:51.503Z,8.20
2023-01-13T01:08:56.162Z,7.23
2023-01-13T01:12:00.947Z,8.40
2023-01-13T01:15:06.057Z,7.40
2023-01-13T01:18:12.254Z,7.50
2023-01-13T01:21:16.090Z,7.00
2023-01-13T01:24:19.405Z,7.17
2023-01-13T01:27:24.483Z,6.93
2023-01-13T01:30:28.236Z,6.60
2023-01-13T01:33:31.577Z,7.10
2023-01-13T01:36:37.054Z,6.50
2023-01-13T01:39:40.589Z,6.03
2023-01-13T01:43:02.796Z,6.60
2023-01-13T01:46:06.195Z,6.70
2023-01-13T01:49:19.155Z,6.30
2023-01-13T01:52:26.594Z,5.93
2023-01-13T01:55:34.834Z,6.07
2023-01-13T01:58:46.243Z,5.73
2023-01-13T02:01:49.987Z,5.50
2023-01-13T02:04:57.075Z,5.43
2023-01-13T02:08:01.875Z,5.37
2023-01-13T02:11:05.466Z,5.57
2023-01-13T02:14:09.603Z,5.20
2023-01-13T02:17:26.227Z,5.40
2023-01-13T02:21:00.318Z,5.20
2023-01-13T02:24:53.432Z,4.80
2023-01-13T02:28:14.086Z,4.80
2023-01-13T02:31:36.448Z,5.17
2023-01-13T02:34:44.467Z,4.80
2023-01-13T02:37:48.847Z,4.53
2023-01-13T02:40:59.576Z,4.70
2023-01-13T02:44:07.473Z,4.80
2023-01-13T02:47:18.241Z,4.20
2023-01-13T02:50:25.709Z,4.10
2023-01-13T02:53:35.021Z,4.40
2023-01-13T02:56:43.213Z,4.07
2023-01-13T02:59:46.542Z,4.20
2023-01-13T03:02:52.319Z,4.57
2023-01-13T03:06:01.658Z,4.43
2023-01-13T03:09:09.585Z,3.93
2023-01-13T03:12:18.951Z,3.87
2023-01-13T03:15:30.674Z,4.00
2023-01-13T03:18:44.057Z,3.80
2023-01-13T03:21:53.563Z,4.00
2023-01-13T03:25:02.847Z,3.50
2023-01-13T03:28:13.857Z,3.63
2023-01-13T03:31:23.090Z,3.77
2023-01-13T03:34:32.823Z,3.30
2023-01-13T03:37:39.908Z,3.30
2023-01-13T03:40:48.860Z,3.30
2023-01-13T03:44:13.155Z,3.20
2023-01-13T03:47:22.326Z,3.33
2023-01-13T03:50:35.565Z,3.67
2023-01-13T03:53:41.856Z,3.40
2023-01-13T03:56:48.506Z,3.20
2023-01-13T03:59:57.093Z,3.20
2023-01-13T04:03:07.439Z,3.10
2023-01-13T04:06:17.463Z,2.90
2023-01-13T04:09:31.556Z,2.80
2023-01-13T04:12:58.253Z,3.00
2023-01-13T04:16:02.336Z,3.03
2023-01-13T04:19:06.631Z,3.10
2023-01-13T04:22:11.683Z,2.63
2023-01-13T04:25:15.050Z,3.03
2023-01-13T04:28:19.587Z,3.70
2023-01-13T04:31:22.930Z,9.47
2023-01-13T04:34:28.207Z,10.50
2023-01-13T04:37:33.133Z,12.67
2023-01-13T04:40:36.686Z,13.10
2023-01-13T04:43:40.102Z,12.87
2023-01-13T04:46:43.988Z,13.50
2023-01-13T04:49:47.556Z,12.73
2023-01-13T04:52:53.495Z,14.00
2023-01-13T04:55:56.891Z,14.00
2023-01-13T04:59:00.073Z,12.23
2023-01-13T05:02:03.618Z,10.93
2023-01-13T05:05:07.604Z,9.43
2023-01-13T05:08:12.136Z,9.27
2023-01-13T05:11:32.716Z,8.30
2023-01-13T05:15:04.869Z,7.80
2023-01-13T05:18:08.586Z,7.63
2023-01-13T05:21:31.949Z,6.77
2023-01-13T05:24:54.230Z,6.43
2023-01-13T05:27:59.354Z,5.80
2023-01-13T05:31:03.232Z,6.17
2023-01-13T05:34:06.686Z,5.57
2023-01-13T05:37:11.179Z,5.67
2023-01-13T05:40:35.952Z,5.10
2023-01-13T05:43:39.790Z,5.67
2023-01-13T05:46:42.999Z,4.70
2023-01-13T05:49:46.031Z,4.10
2023-01-13T05:52:49.573Z,4.60
2023-01-13T05:55:54.927Z,4.30
2023-01-13T05:58:58.149Z,4.03
2023-01-13T06:02:01.297Z,4.43
2023-01-13T06:05:04.503Z,3.70
2023-01-13T06:08:08.917Z,3.90
2023-01-13T06:11:13.515Z,3.87
2023-01-13T06:14:16.626Z,3.60
2023-01-13T06:17:19.863Z,4.10
2023-01-13T06:20:22.904Z,3.60
2023-01-13T06:23:26.258Z,3.30
2023-01-13T06:26:33.162Z,3.80
2023-01-13T06:29:36.364Z,3.30
2023-01-13T06:32:42.960Z,3.40
2023-01-13T06:35:50.753Z,3.17
2023-01-13T06:38:58.532Z,3.60
2023-01-13T06:42:22.265Z,3.10
2023-01-13T06:45:28.152Z,3.30
2023-01-13T06:48:35.348Z,2.90
2023-01-13T06:51:39.078Z,3.10
2023-01-13T06:54:42.243Z,3.43
2023-01-13T06:57:55.336Z,2.90
2023-01-13T07:01:01.922Z,2.87
2023-01-13T07:04:05.300Z,3.57
2023-01-13T07:07:09.035Z,2.80
2023-01-13T07:10:14.631Z,3.13
2023-01-13T07:13:41.719Z,2.73
2023-01-13T07:16:45.661Z,3.13
2023-01-13T07:19:48.754Z,3.20
2023-01-13T07:22:56.783Z,2.93
2023-01-13T07:26:00.818Z,2.50
2023-01-13T07:29:05.344Z,2.83
2023-01-13T07:32:08.754Z,2.80
2023-01-13T07:35:11.742Z,3.30
2023-01-13T07:38:15.019Z,3.20
2023-01-13T07:41:35.856Z,3.27
2023-01-13T07:44:40.487Z,3.50
2023-01-13T07:47:43.561Z,3.70
2023-01-13T07:50:47.825Z,3.60
2023-01-13T07:53:50.879Z,3.80
2023-01-13T07:56:53.952Z,3.60
2023-01-13T07:59:58.747Z,3.43
2023-01-13T08:03:01.968Z,3.80
2023-01-13T08:06:05.677Z,4.03
2023-01-13T08:09:09.753Z,3.37
2023-01-13T08:12:30.059Z,3.50
2023-01-13T08:15:34.823Z,3.17
2023-01-13T08:18:39.557Z,3.03
2023-01-13T08:21:42.775Z,3.33
2023-01-13T08:24:46.529Z,2.93
2023-01-13T08:27:51.214Z,3.43
2023-01-13T08:30:56.027Z,3.07
2023-01-13T08:33:59.054Z,3.20
2023-01-13T08:37:02.391Z,3.27
2023-01-13T08:40:09.225Z,3.40
2023-01-13T08:43:12.451Z,3.13
2023-01-13T08:46:17.325Z,3.20
2023-01-13T08:49:20.612Z,3.07
2023-01-13T08:52:24.377Z,3.27
2023-01-13T08:55:27.430Z,3.47
2023-01-13T08:58:30.446Z,2.80
2023-01-13T09:01:35.236Z,3.20
2023-01-13T09:04:38.416Z,2.83
2023-01-13T09:07:41.635Z,3.10
2023-01-13T09:10:44.947Z,2.87
2023-01-13T09:13:47.071Z,3.00
2023-01-13T09:16:51.512Z,2.83
2023-01-13T09:19:54.828Z,2.53
2023-01-13T09:22:58.300Z,2.50
2023-01-13T09:26:01.399Z,2.83
2023-01-13T09:29:04.752Z,2.67
2023-01-13T09:32:15.284Z,2.80
2023-01-13T09:35:18.549Z,2.77
2023-01-13T09:38:21.947Z,2.87
2023-01-13T09:41:44.778Z,2.90
2023-01-13T09:44:55.411Z,3.23
2023-01-13T09:48:07.803Z,2.30
2023-01-13T09:51:21.040Z,2.60
2023-01-13T09:54:32.942Z,2.33
2023-01-13T09:57:40.548Z,2.93
2023-01-13T10:00:48.149Z,2.40
2023-01-13T10:03:52.814Z,2.07
2023-01-13T10:07:00.791Z,2.50
2023-01-13T10:10:09.265Z,2.40
2023-01-13T10:13:24.378Z,2.30
2023-01-13T10:16:42.043Z,2.20
2023-01-13T10:19:53.121Z,2.60
2023-01-13T10:23:08.209Z,2.77
2023-01-13T10:26:27.009Z,2.20
2023-01-13T10:29:32.210Z,2.50
2023-01-13T10:32:35.240Z,2.50
2023-01-13T10:35:59.264Z,2.30
2023-01-13T10:39:10.493Z,2.30
2023-01-13T10:42:16.095Z,2.40
2023-01-13T10:45:26.727Z,2.70
2023-01-13T10:48:40.338Z,2.03
2023-01-13T10:51:48.449Z,2.20
2023-01-13T10:54:54.356Z,2.40
2023-01-13T10:57:57.761Z,2.03
2023-01-13T11:01:04.799Z,2.37
2023-01-13T11:04:29.170Z,2.20
2023-01-13T11:07:36.690Z,2.10
2023-01-13T11:10:46.778Z,1.87
2023-01-13T11:14:09.195Z,2.50
2023-01-13T11:17:24.674Z,2.27
2023-01-13T11:20:36.955Z,2.10
2023-01-13T11:23:48.625Z,2.20
2023-01-13T11:26:58.311Z,2.40
2023-01-13T11:30:10.093Z,2.37
2023-01-13T11:33:30.607Z,1.80
2023-01-13T11:36:38.871Z,1.90
2023-01-13T11:39:53.869Z,1.80
2023-01-13T11:43:02.855Z,1.67
2023-01-13T11:46:07.820Z,2.40
2023-01-13T11:49:25.245Z,2.33
2023-01-13T11:52:41.547Z,1.80
2023-01-13T11:55:56.054Z,2.37
2023-01-13T11:59:21.229Z,2.07
2023-01-13T12:02:45.257Z,1.80
2023-01-13T12:06:10.576Z,2.20
2023-01-13T12:09:41.354Z,1.53
2023-01-13T12:12:53.077Z,1.90
2023-01-13T12:16:23.585Z,1.63
2023-01-13T12:19:28.236Z,1.97
2023-01-13T12:22:35.964Z,1.93
2023-01-13T12:25:44.617Z,1.73
2023-01-13T12:28:52.701Z,1.67
2023-01-13T12:31:56.693Z,1.70
2023-01-13T12:35:09.545Z,1.83
2023-01-13T12:38:21.273Z,2.07
2023-01-13T12:41:34.690Z,1.80
2023-01-13T12:44:38.238Z,1.80
2023-01-13T12:47:44.036Z,1.87
2023-01-13T12:51:00.883Z,1.70
2023-01-13T12:54:06.884Z,1.77
2023-01-13T12:57:22.002Z,1.90
2023-01-13T13:00:33.487Z,2.00
2023-01-13T13:03:37.733Z,1.70
2023-01-13T13:06:44.895Z,2.00
2023-01-13T13:09:54.207Z,1.67
2023-01-13T13:13:18.184Z,1.63
2023-01-13T13:16:48.654Z,1.60
2023-01-13T13:19:52.312Z,1.93
2023-01-13T13:22:55.436Z,1.63
2023-01-13T13:26:04.792Z,1.90
2023-01-13T13:29:29.630Z,1.57
2023-01-13T13:33:00.626Z,1.70
2023-01-13T13:36:16.094Z,1.60
2023-01-13T13:39:41.179Z,1.77
2023-01-13T13:43:03.285Z,2.00
2023-01-13T13:46:42.131Z,1.93
2023-01-13T13:49:50.775Z,1.80
2023-01-13T13:53:00.026Z,1.70
2023-01-13T13:56:05.423Z,2.00
2023-01-13T13:59:11.735Z,1.90
2023-01-13T14:02:21.352Z,2.07
2023-01-13T14:05:28.579Z,1.70
2023-01-13T14:08:34.676Z,1.90
2023-01-13T14:11:38.049Z,2.00
2023-01-13T14:14:44.845Z,2.27
2023-01-13T14:17:48.772Z,1.87
2023-01-13T14:21:16.145Z,1.80
2023-01-13T14:24:21.116Z,1.90
2023-01-13T14:27:27.607Z,1.90
2023-01-13T14:30:31.009Z,1.73
2023-01-13T14:33:38.846Z,1.90
2023-01-13T14:36:43.669Z,2.00
2023-01-13T14:39:46.803Z,1.83
2023-01-13T14:42:58.531Z,2.00
2023-01-13T14:46:03.895Z,2.10
2023-01-13T14:49:07.003Z,1.93
2023-01-13T14:52:18.022Z,2.10
2023-01-13T14:55:30.480Z,2.00
2023-01-13T14:58:33.583Z,1.80
2023-01-13T15:01:39.615Z,2.07
2023-01-13T15:04:45.493Z,1.70
2023-01-13T15:07:53.337Z,1.93
2023-01-13T15:11:00.237Z,2.30
2023-01-13T15:14:11.946Z,2.10
2023-01-13T15:17:18.716Z,2.20
2023-01-13T15:20:23.250Z,2.67
2023-01-13T15:23:27.777Z,2.23
2023-01-13T15:26:31.405Z,2.70
2023-01-13T15:29:34.593Z,2.27
2023-01-13T15:32:38.005Z,2.60
2023-01-13T15:35:44.489Z,2.53
2023-01-13T15:38:50.916Z,2.90
2023-01-13T15:42:11.456Z,2.50
2023-01-13T15:45:31.923Z,2.30
2023-01-13T15:48:35.771Z,2.60
2023-01-13T15:51:39.059Z,2.53
2023-01-13T15:54:43.527Z,2.50
2023-01-13T15:57:49.891Z,3.10
2023-01-13T16:00:53.122Z,2.50
2023-01-13T16:03:56.626Z,2.53
2023-01-13T16:07:00.868Z,2.93
2023-01-13T16:10:05.756Z,3.13
2023-01-13T16:13:08.972Z,3.10
2023-01-13T16:16:20.017Z,2.83
2023-01-13T16:19:23.214Z,3.40
2023-01-13T16:22:26.393Z,3.03
2023-01-13T16:25:31.124Z,3.10
2023-01-13T16:28:35.967Z,3.90
2023-01-13T16:31:39.537Z,4.60
2023-01-13T16:34:43.012Z,4.87
2023-01-13T16:37:47.608Z,5.33
2023-01-13T16:40:52.793Z,4.70
2023-01-13T16:43:56.052Z,5.73
2023-01-13T16:46:59.341Z,5.73
2023-01-13T16:50:02.513Z,5.57
2023-01-13T16:53:06.035Z,5.80
2023-01-13T16:56:24.941Z,5.63
2023-01-13T16:59:28.039Z,4.90
2023-01-13T17:02:31.160Z,5.30
2023-01-13T17:05:39.495Z,5.40
2023-01-13T17:08:42.588Z,5.30
2023-01-13T17:11:49.011Z,5.97
2023-01-13T17:14:52.200Z,6.20
2023-01-13T17:17:56.592Z,6.20
2023-01-13T17:21:01.590Z,6.10
2023-01-13T17:24:06.129Z,6.30
2023-01-13T17:27:10.720Z,6.50
2023-01-13T17:30:17.427Z,6.60
2023-01-13T17:33:20.653Z,6.90
2023-01-13T17:36:24.858Z,6.77
2023-01-13T17:39:28.633Z,7.53
2023-01-13T17:42:33.309Z,7.10
2023-01-13T17:45:36.547Z,6.77
2023-01-13T17:48:40.353Z,7.07
2023-01-13T17:51:44.864Z,6.43
2023-01-13T17:54:48.100Z,8.07
2023-01-13T17:57:52.812Z,18.00
2023-01-13T18:00:56.425Z,11.83
2023-01-13T18:03:59.922Z,13.93
2023-01-13T18:07:03.090Z,14.70
2023-01-13T18:10:08.084Z,13.80
2023-01-13T18:13:12.662Z,14.37
2023-01-13T18:16:19.136Z,13.43
2023-01-13T18:19:39.595Z,13.20
2023-01-13T18:22:59.680Z,13.10
2023-01-13T18:26:39.390Z,12.90
2023-01-13T18:29:44.192Z,12.60
2023-01-13T18:32:47.410Z,12.30
2023-01-13T18:35:50.759Z,11.80
2023-01-13T18:38:53.973Z,11.20
2023-01-13T18:42:14.440Z,11.10
2023-01-13T18:45:19.544Z,11.40
2023-01-13T18:48:22.651Z,11.60
2023-01-13T18:51:25.844Z,10.53
2023-01-13T18:54:28.923Z,11.73
2023-01-13T18:57:35.971Z,11.30
2023-01-13T19:00:40.908Z,11.97
2023-01-13T19:03:44.196Z,10.60
2023-01-13T19:06:51.840Z,11.87
2023-01-13T19:09:56.826Z,16.80
2023-01-13T19:13:03.993Z,19.00
2023-01-13T19:16:09.901Z,18.97
2023-01-13T19:19:13.377Z,19.13
2023-01-13T19:22:20.067Z,18.80
2023-01-13T19:25:24.008Z,18.20
2023-01-13T19:28:28.394Z,18.40
2023-01-13T19:31:33.197Z,18.43
2023-01-13T19:34:36.870Z,17.40
2023-01-13T19:37:40.967Z,18.03
2023-01-13T19:40:44.107Z,17.57
2023-01-13T19:44:05.155Z,17.67
2023-01-13T19:47:10.888Z,17.33
2023-01-13T19:50:16.105Z,16.93
2023-01-13T19:53:19.465Z,16.50
2023-01-13T19:56:23.805Z,17.50
2023-01-13T19:59:29.343Z,16.20
2023-01-13T20:02:38.966Z,19.67
2023-01-13T20:05:44.057Z,21.00
2023-01-13T20:08:49.369Z,22.57
2023-01-13T20:11:54.093Z,22.17
2023-01-13T20:14:57.449Z,21.80
2023-01-13T20:18:02.430Z,20.03
2023-01-13T20:21:07.699Z,20.23
2023-01-13T20:24:17.022Z,21.23
2023-01-13T20:27:23.612Z,21.60
2023-01-13T20:30:29.766Z,19.70
2023-01-13T20:33:34.967Z,19.87
2023-01-13T20:36:41.811Z,19.20
2023-01-13T20:39:46.168Z,19.50
2023-01-13T20:42:49.427Z,19.27
2023-01-13T20:45:55.571Z,17.67
2023-01-13T20:49:02.685Z,17.70
2023-01-13T20:52:09.806Z,17.97
2023-01-13T20:55:13.690Z,17.80
2023-01-13T20:58:17.471Z,17.70
2023-01-13T21:01:20.927Z,16.83
2023-01-13T21:04:27.916Z,17.53
2023-01-13T21:07:31.852Z,18.47
2023-01-13T21:10:35.400Z,18.60
2023-01-13T21:13:56.323Z,17.80
2023-01-13T21:17:00.027Z,16.63
2023-01-13T21:20:04.688Z,17.37
2023-01-13T21:23:11.008Z,17.20
2023-01-13T21:26:20.144Z,16.17
2023-01-13T21:29:24.686Z,17.83
2023-01-13T21:32:29.662Z,17.10
2023-01-13T21:35:39.790Z,16.30
2023-01-13T21:38:43.201Z,16.20
2023-01-13T21:42:05.002Z,16.23
2023-01-13T21:45:29.642Z,15.87
2023-01-13T21:48:33.100Z,15.87
2023-01-13T21:51:37.822Z,15.83
2023-01-13T21:54:57.232Z,15.53
2023-01-13T21:58:08.041Z,15.00
2023-01-13T22:01:11.962Z,15.30
2023-01-13T22:04:16.484Z,15.10
2023-01-13T22:07:27.387Z,15.07
2023-01-13T22:10:32.050Z,15.00
2023-01-13T22:13:53.309Z,15.37
2023-01-13T22:17:01.266Z,14.60
2023-01-13T22:20:07.067Z,15.33
2023-01-13T22:23:12.373Z,14.30
2023-01-13T22:26:16.452Z,14.67
2023-01-13T22:29:19.702Z,13.67
2023-01-13T22:32:23.114Z,14.80
2023-01-13T22:35:26.881Z,14.40
2023-01-13T22:38:33.777Z,13.87
2023-01-13T22:41:37.415Z,13.30
2023-01-13T22:44:40.937Z,13.10
2023-01-13T22:47:49.472Z,13.23
2023-01-13T22:50:52.813Z,13.20
2023-01-13T22:53:58.750Z,13.63
2023-01-13T22:57:02.414Z,13.40
2023-01-13T23:00:08.009Z,12.57
2023-01-13T23:03:13.423Z,12.67
2023-01-13T23:06:18.837Z,12.33
2023-01-13T23:09:25.463Z,12.90
2023-01-13T23:12:30.925Z,12.00
2023-01-13T23:15:37.488Z,13.27
2023-01-13T23:18:43.140Z,13.40
2023-01-13T23:21:46.345Z,11.80
2023-01-13T23:24:51.273Z,11.53
2023-01-13T23:27:57.604Z,12.77
2023-01-13T23:31:02.939Z,12.53
2023-01-13T23:34:06.493Z,12.47
2023-01-13T23:37:10.848Z,12.60
2023-01-13T23:40:17.897Z,12.60
2023-01-13T23:43:21.768Z,11.90
2023-01-13T23:46:25.969Z,12.33
2023-01-13T23:49:30.015Z,11.67
2023-01-13T23:52:33.763Z,11.60
2023-01-13T23:55:39.265Z,11.33
2023-01-13T23:58:43.324Z,11.83
